Time;durP1;ratioP1;P1;durP2;ratioP2;P2;SDS_P1;SDS_P2;PMS_P1;PMS_P2;Temp;Humidity;BMP_temperature;BMP_pressure;BME280_temperature;BME280_humidity;BME280_pressure;Samples;Min_cycle;Max_cycle;Signal;HPM_P1;HPM_P2
2023/06/30 00:01:33;;;;;;;;;;;15.90;99.90;;;;;;5132687;28;19992;-45
2023/06/30 00:03:58;;;;;;;;;;;15.80;99.90;;;;;;5133162;28;19971;-43
2023/06/30 00:06:24;;;;;;;;;;;15.80;99.90;;;;;;5132251;28;19911;-42
2023/06/30 00:08:50;;;;;;;;;;;15.80;99.90;;;;;;5132874;28;20337;-44
2023/06/30 00:11:17;;;;;;;;;;;15.90;99.90;;;;;;5132752;27;19915;-44
2023/06/30 00:13:45;;;;;;;;;;;15.80;99.90;;;;;;5136291;27;20282;-42
2023/06/30 00:16:11;;;;;;;;;;;15.70;99.90;;;;;;5136902;27;20010;-44
2023/06/30 00:18:36;;;;;;;;;;;15.70;99.90;;;;;;5137114;27;19945;-43
2023/06/30 00:21:03;;;;;;;;;;;15.70;99.90;;;;;;5136014;27;19912;-45
2023/06/30 00:23:28;;;;;;;;;;;15.60;99.90;;;;;;5131764;27;19933;-42
2023/06/30 00:25:54;;;;;;;;;;;15.60;99.90;;;;;;5135958;27;19908;-42
2023/06/30 00:28:20;;;;;;;;;;;15.60;99.90;;;;;;5136902;27;19914;-44
2023/06/30 00:30:46;;;;;;;;;;;15.60;99.90;;;;;;5136852;27;20014;-43
2023/06/30 00:33:11;;;;;;;;;;;15.50;99.90;;;;;;5136153;27;20007;-48
2023/06/30 00:35:37;;;;;;;;;;;15.50;99.90;;;;;;5136773;27;20372;-43
2023/06/30 00:38:02;;;;;;;;;;;15.40;99.90;;;;;;5136390;27;19922;-44
2023/06/30 00:40:28;;;;;;;;;;;15.40;99.90;;;;;;5136012;27;19960;-42
2023/06/30 00:42:53;;;;;;;;;;;15.40;99.90;;;;;;5136538;27;19930;-44
2023/06/30 00:45:19;;;;;;;;;;;15.30;99.90;;;;;;5136653;27;19998;-44
2023/06/30 00:47:44;;;;;;;;;;;15.30;99.90;;;;;;5135800;27;19908;-45
2023/06/30 00:50:11;;;;;;;;;;;15.20;99.90;;;;;;5136744;27;19908;-43
2023/06/30 00:52:37;;;;;;;;;;;15.20;99.90;;;;;;5136609;27;19952;-43
2023/06/30 00:55:03;;;;;;;;;;;15.10;99.90;;;;;;5135559;27;19914;-44
2023/06/30 00:57:29;;;;;;;;;;;15.10;99.90;;;;;;5136245;27;20014;-43
2023/06/30 00:59:54;;;;;;;;;;;15.10;99.90;;;;;;5136367;27;19962;-42
2023/06/30 01:02:22;;;;;;;;;;;15.10;99.90;;;;;;5135620;27;20048;-41
2023/06/30 01:04:52;;;;;;;;;;;15.10;99.90;;;;;;5136163;27;19907;-42
2023/06/30 01:07:32;;;;;;;;;;;15.10;99.90;;;;;;5136337;27;19951;-44
2023/06/30 01:10:00;;;;;;;;;;;15.10;99.90;;;;;;5135303;27;19915;-42
2023/06/30 01:12:26;;;;;;;;;;;15.00;99.90;;;;;;5136133;27;19911;-44
2023/06/30 01:14:52;;;;;;;;;;;14.90;99.90;;;;;;5135922;27;19911;-46
2023/06/30 01:17:18;;;;;;;;;;;14.90;99.90;;;;;;5135293;27;20008;-42
2023/06/30 01:19:45;;;;;;;;;;;14.80;99.90;;;;;;5135985;27;19907;-42
2023/06/30 01:22:19;;;;;;;;;;;14.80;99.90;;;;;;5134783;27;20045;-42
2023/06/30 01:24:44;;;;;;;;;;;14.80;99.90;;;;;;5135302;27;19957;-42
2023/06/30 01:27:12;;;;;;;;;;;14.70;99.90;;;;;;5135278;27;19915;-42
2023/06/30 01:29:42;;;;;;;;;;;14.80;99.90;;;;;;5134284;27;19911;-44
2023/06/30 01:32:08;;;;;;;;;;;14.70;99.90;;;;;;5135653;27;19911;-42
2023/06/30 01:34:33;;;;;;;;;;;14.70;99.90;;;;;;5135766;27;19908;-43
2023/06/30 01:36:59;;;;;;;;;;;14.70;99.90;;;;;;5134303;27;19946;-43
2023/06/30 01:39:24;;;;;;;;;;;14.60;99.90;;;;;;5135246;27;20290;-44
2023/06/30 01:41:50;;;;;;;;;;;14.50;99.90;;;;;;5135577;27;19955;-43
2023/06/30 01:44:15;;;;;;;;;;;14.40;99.90;;;;;;5134661;27;20279;-44
2023/06/30 01:46:41;;;;;;;;;;;14.40;99.90;;;;;;5135392;27;19908;-44
2023/06/30 01:49:08;;;;;;;;;;;14.30;99.90;;;;;;5135504;27;19907;-44
2023/06/30 01:51:34;;;;;;;;;;;14.30;99.90;;;;;;5134544;27;19908;-43
2023/06/30 01:53:59;;;;;;;;;;;14.20;99.90;;;;;;5135211;27;20006;-42
2023/06/30 01:56:25;;;;;;;;;;;14.20;99.90;;;;;;5135089;27;19912;-42
2023/06/30 01:58:51;;;;;;;;;;;14.10;99.90;;;;;;5134423;27;19916;-43
2023/06/30 02:01:16;;;;;;;;;;;14.10;99.90;;;;;;5135131;27;19914;-42
2023/06/30 02:03:42;;;;;;;;;;;14.10;99.90;;;;;;5135109;27;19907;-42
2023/06/30 02:06:07;;;;;;;;;;;14.10;99.90;;;;;;5134263;27;19914;-42
2023/06/30 02:08:33;;;;;;;;;;;14.10;99.90;;;;;;5135142;27;20346;-42
2023/06/30 02:10:58;;;;;;;;;;;14.00;99.90;;;;;;5134930;27;19921;-44
2023/06/30 02:13:23;;;;;;;;;;;14.00;99.90;;;;;;5134250;27;19915;-44
2023/06/30 02:15:49;;;;;;;;;;;14.00;99.90;;;;;;5132919;27;19912;-42
2023/06/30 02:18:14;;;;;;;;;;;14.00;99.90;;;;;;5116948;27;20014;-45
2023/06/30 02:20:40;;;;;;;;;;;14.00;99.90;;;;;;5121405;27;19916;-43
2023/06/30 02:23:05;;;;;;;;;;;14.00;99.90;;;;;;5134693;27;19907;-42
2023/06/30 02:25:31;;;;;;;;;;;14.00;99.90;;;;;;5133934;27;19933;-43
2023/06/30 02:27:57;;;;;;;;;;;14.00;99.90;;;;;;5134729;27;20516;-41
2023/06/30 02:30:23;;;;;;;;;;;14.00;99.90;;;;;;5134711;27;19908;-43
2023/06/30 02:32:49;;;;;;;;;;;13.90;99.90;;;;;;5133684;27;19914;-43
2023/06/30 02:35:14;;;;;;;;;;;14.00;99.90;;;;;;5134064;27;19995;-43
2023/06/30 02:37:40;;;;;;;;;;;13.90;99.90;;;;;;5134489;27;19927;-43
2023/06/30 02:40:06;;;;;;;;;;;13.90;99.90;;;;;;5133459;27;19921;-42
2023/06/30 02:42:31;;;;;;;;;;;14.00;99.90;;;;;;5134315;27;19908;-46
2023/06/30 02:44:57;;;;;;;;;;;13.90;99.90;;;;;;5134508;27;20019;-43
2023/06/30 02:47:22;;;;;;;;;;;13.90;99.90;;;;;;5133863;27;19908;-44
2023/06/30 02:49:48;;;;;;;;;;;13.80;99.90;;;;;;5134234;27;20277;-44
2023/06/30 02:52:13;;;;;;;;;;;13.80;99.90;;;;;;5134064;27;19998;-42
2023/06/30 02:54:39;;;;;;;;;;;13.70;99.90;;;;;;5133417;27;20421;-42
2023/06/30 02:57:04;;;;;;;;;;;13.70;99.90;;;;;;5134016;27;19954;-44
2023/06/30 02:59:29;;;;;;;;;;;13.70;99.90;;;;;;5134166;27;20389;-44
2023/06/30 03:01:55;;;;;;;;;;;13.70;99.90;;;;;;5133257;27;19914;-42
2023/06/30 03:04:21;;;;;;;;;;;13.70;99.90;;;;;;5134009;27;20358;-43
2023/06/30 03:06:46;;;;;;;;;;;13.60;99.90;;;;;;5133938;27;19911;-43
2023/06/30 03:09:11;;;;;;;;;;;13.60;99.90;;;;;;5133229;27;19908;-44
2023/06/30 03:11:37;;;;;;;;;;;13.70;99.90;;;;;;5133957;27;19908;-42
2023/06/30 03:14:02;;;;;;;;;;;13.60;99.90;;;;;;5133890;27;19908;-42
2023/06/30 03:16:28;;;;;;;;;;;13.60;99.90;;;;;;5133145;27;19911;-43
2023/06/30 03:18:53;;;;;;;;;;;13.60;99.90;;;;;;5133822;27;19943;-42
2023/06/30 03:21:19;;;;;;;;;;;13.60;99.90;;;;;;5133621;27;20358;-42
2023/06/30 03:23:45;;;;;;;;;;;13.60;99.90;;;;;;5132979;27;19960;-42
2023/06/30 03:26:11;;;;;;;;;;;13.60;99.90;;;;;;5133820;28;19908;-44
2023/06/30 03:28:36;;;;;;;;;;;13.50;99.90;;;;;;5132991;28;19912;-42
2023/06/30 03:31:02;;;;;;;;;;;13.50;99.90;;;;;;5133707;28;19969;-41
2023/06/30 03:33:28;;;;;;;;;;;13.50;99.90;;;;;;5133782;28;19961;-45
2023/06/30 03:35:54;;;;;;;;;;;13.50;99.90;;;;;;5132801;28;19922;-41
2023/06/30 03:38:19;;;;;;;;;;;13.40;99.90;;;;;;5133278;28;20398;-44
2023/06/30 03:40:45;;;;;;;;;;;13.40;99.90;;;;;;5133533;28;20413;-42
2023/06/30 03:43:10;;;;;;;;;;;13.40;99.90;;;;;;5132414;28;19911;-42
2023/06/30 03:45:38;;;;;;;;;;;13.50;99.90;;;;;;5133620;27;20017;-43
2023/06/30 03:48:03;;;;;;;;;;;13.50;99.90;;;;;;5136262;27;19912;-48
2023/06/30 03:50:29;;;;;;;;;;;13.60;99.90;;;;;;5136943;27;19918;-43
2023/06/30 03:52:54;;;;;;;;;;;13.60;99.90;;;;;;5137237;27;19907;-43
2023/06/30 03:55:20;;;;;;;;;;;13.70;99.90;;;;;;5137721;27;19912;-42
2023/06/30 03:57:45;;;;;;;;;;;13.70;99.90;;;;;;5125698;27;19930;-45
2023/06/30 04:00:12;;;;;;;;;;;13.70;99.90;;;;;;5133218;27;19934;-43
2023/06/30 04:02:39;;;;;;;;;;;13.70;99.90;;;;;;5137321;27;20000;-43
2023/06/30 04:05:04;;;;;;;;;;;13.70;99.90;;;;;;5136658;27;19961;-42
2023/06/30 04:07:30;;;;;;;;;;;13.60;99.90;;;;;;5137350;27;19911;-42
2023/06/30 04:09:55;;;;;;;;;;;13.60;99.90;;;;;;5137119;27;20025;-42
2023/06/30 04:12:21;;;;;;;;;;;13.60;99.90;;;;;;5136651;27;19991;-43
2023/06/30 04:14:46;;;;;;;;;;;13.50;99.90;;;;;;5137234;27;20368;-43
2023/06/30 04:17:12;;;;;;;;;;;13.40;99.90;;;;;;5137196;27;20002;-42
2023/06/30 04:19:37;;;;;;;;;;;13.40;99.90;;;;;;5136218;27;20040;-45
2023/06/30 04:22:03;;;;;;;;;;;13.30;99.90;;;;;;5137107;27;19914;-43
2023/06/30 04:24:28;;;;;;;;;;;13.20;99.90;;;;;;5137144;27;19960;-43
2023/06/30 04:26:55;;;;;;;;;;;13.20;99.90;;;;;;5136288;27;19907;-43
2023/06/30 04:29:20;;;;;;;;;;;13.20;99.90;;;;;;5137102;27;19915;-43
2023/06/30 04:31:46;;;;;;;;;;;13.30;99.90;;;;;;5136910;27;19912;-42
2023/06/30 04:34:11;;;;;;;;;;;13.30;99.90;;;;;;5136108;27;20407;-42
2023/06/30 04:36:37;;;;;;;;;;;13.30;99.90;;;;;;5136693;27;20593;-41
2023/06/30 04:39:03;;;;;;;;;;;13.40;99.90;;;;;;5135954;27;19923;-42
2023/06/30 04:41:28;;;;;;;;;;;13.50;99.90;;;;;;5136806;27;19908;-42
2023/06/30 04:43:54;;;;;;;;;;;13.60;99.90;;;;;;5136681;27;19907;-44
2023/06/30 04:46:20;;;;;;;;;;;13.60;99.90;;;;;;5135896;27;19908;-45
2023/06/30 04:48:45;;;;;;;;;;;13.60;99.90;;;;;;5136580;27;19908;-44
2023/06/30 04:51:11;;;;;;;;;;;13.70;99.90;;;;;;5136484;27;20343;-42
2023/06/30 04:53:38;;;;;;;;;;;13.70;99.90;;;;;;5135940;27;19912;-44
2023/06/30 04:56:04;;;;;;;;;;;13.70;99.90;;;;;;5134182;27;19918;-42
2023/06/30 04:58:30;;;;;;;;;;;13.70;99.90;;;;;;5118865;27;20281;-42
2023/06/30 05:00:56;;;;;;;;;;;13.70;99.90;;;;;;5114995;28;20350;-41
2023/06/30 05:03:22;;;;;;;;;;;13.80;99.90;;;;;;5124179;27;19911;-42
2023/06/30 05:05:47;;;;;;;;;;;13.80;99.90;;;;;;5135704;27;19976;-42
2023/06/30 05:08:14;;;;;;;;;;;13.80;99.90;;;;;;5135402;27;19916;-42
2023/06/30 05:10:39;;;;;;;;;;;13.80;99.90;;;;;;5136211;27;19949;-44
2023/06/30 05:13:05;;;;;;;;;;;13.80;99.90;;;;;;5135988;27;19915;-43
2023/06/30 05:15:31;;;;;;;;;;;13.80;99.90;;;;;;5135140;27;20385;-42
2023/06/30 05:17:56;;;;;;;;;;;13.80;99.90;;;;;;5135295;27;19976;-43
2023/06/30 05:20:22;;;;;;;;;;;13.80;99.90;;;;;;5135698;27;19926;-44
2023/06/30 05:22:47;;;;;;;;;;;13.80;99.90;;;;;;5134667;27;19915;-42
2023/06/30 05:25:13;;;;;;;;;;;13.90;99.90;;;;;;5135776;27;19922;-42
2023/06/30 05:27:38;;;;;;;;;;;13.90;99.90;;;;;;5135816;27;19907;-43
2023/06/30 05:30:04;;;;;;;;;;;13.90;99.90;;;;;;5134803;27;19976;-44
2023/06/30 05:32:30;;;;;;;;;;;14.00;99.90;;;;;;5135640;27;19957;-42
2023/06/30 05:34:55;;;;;;;;;;;14.00;99.90;;;;;;5135564;27;20093;-47
2023/06/30 05:37:21;;;;;;;;;;;14.00;99.90;;;;;;5134820;27;19922;-44
2023/06/30 05:39:46;;;;;;;;;;;14.10;99.90;;;;;;5134892;27;20300;-42
2023/06/30 05:42:12;;;;;;;;;;;14.10;99.90;;;;;;5134901;27;19908;-46
2023/06/30 05:44:37;;;;;;;;;;;14.20;99.90;;;;;;5135411;27;20056;-47
2023/06/30 05:47:03;;;;;;;;;;;14.20;99.90;;;;;;5135431;27;19914;-44
2023/06/30 05:49:28;;;;;;;;;;;14.30;99.90;;;;;;5134636;27;19999;-42
2023/06/30 05:51:54;;;;;;;;;;;14.40;99.90;;;;;;5135295;27;19914;-45
2023/06/30 05:54:19;;;;;;;;;;;14.50;99.90;;;;;;5135355;27;19968;-43
2023/06/30 05:56:45;;;;;;;;;;;14.60;99.90;;;;;;5134403;27;19968;-43
2023/06/30 05:59:10;;;;;;;;;;;14.70;99.90;;;;;;5135452;27;19914;-44
2023/06/30 06:01:39;;;;;;;;;;;14.80;99.90;;;;;;5135160;27;19919;-44
2023/06/30 06:04:07;;;;;;;;;;;14.90;99.90;;;;;;5134681;27;19907;-43
2023/06/30 06:06:33;;;;;;;;;;;15.10;99.90;;;;;;5135177;27;19930;-43
2023/06/30 06:08:58;;;;;;;;;;;15.20;99.90;;;;;;5134593;27;20389;-43
2023/06/30 06:11:24;;;;;;;;;;;15.30;99.90;;;;;;5133873;27;19952;-43
2023/06/30 06:13:49;;;;;;;;;;;15.40;99.90;;;;;;5129756;27;19915;-42
2023/06/30 06:16:15;;;;;;;;;;;15.50;99.90;;;;;;5134803;27;19908;-42
2023/06/30 06:18:40;;;;;;;;;;;15.60;99.90;;;;;;5133886;27;20002;-45
2023/06/30 06:21:06;;;;;;;;;;;15.70;99.90;;;;;;5134734;27;19911;-42
2023/06/30 06:23:31;;;;;;;;;;;15.80;99.90;;;;;;5133946;27;19911;-43
2023/06/30 06:25:57;;;;;;;;;;;15.80;99.90;;;;;;5132038;27;20418;-43
2023/06/30 06:28:22;;;;;;;;;;;15.90;99.90;;;;;;5129050;27;20327;-43
2023/06/30 06:30:48;;;;;;;;;;;16.00;99.90;;;;;;5120442;27;19915;-44
2023/06/30 06:33:13;;;;;;;;;;;16.00;99.90;;;;;;5133703;27;19911;-44
2023/06/30 06:35:39;;;;;;;;;;;16.10;99.90;;;;;;5134222;27;19918;-42
2023/06/30 06:38:05;;;;;;;;;;;16.10;99.90;;;;;;5133634;27;20399;-42
2023/06/30 06:40:30;;;;;;;;;;;16.20;99.90;;;;;;5133749;27;19914;-42
2023/06/30 06:42:56;;;;;;;;;;;16.30;99.90;;;;;;5133170;27;19907;-42
2023/06/30 06:45:22;;;;;;;;;;;16.40;99.90;;;;;;5125436;27;19934;-48
2023/06/30 06:48:06;;;;;;;;;;;16.40;99.90;;;;;;5113077;27;19908;-47
2023/06/30 06:50:31;;;;;;;;;;;16.60;99.90;;;;;;5133671;27;19919;-53
2023/06/30 06:52:57;;;;;;;;;;;16.60;99.90;;;;;;5132466;27;19911;-44
2023/06/30 06:55:22;;;;;;;;;;;16.70;99.90;;;;;;5133945;27;19915;-45
2023/06/30 06:57:48;;;;;;;;;;;16.80;99.90;;;;;;5129895;27;19919;-43
2023/06/30 07:00:15;;;;;;;;;;;17.00;99.90;;;;;;5128729;27;20024;-42
2023/06/30 07:02:40;;;;;;;;;;;17.10;99.90;;;;;;5124705;27;19912;-43
2023/06/30 07:05:06;;;;;;;;;;;17.10;99.90;;;;;;5133839;27;19949;-43
2023/06/30 07:07:32;;;;;;;;;;;17.10;99.90;;;;;;5132532;27;20029;-44
2023/06/30 07:09:57;;;;;;;;;;;17.10;99.90;;;;;;5134012;27;19961;-43
2023/06/30 07:12:22;;;;;;;;;;;17.00;99.90;;;;;;5132701;27;19919;-44
2023/06/30 07:14:48;;;;;;;;;;;17.10;99.90;;;;;;5131011;27;19912;-44
2023/06/30 07:17:14;;;;;;;;;;;17.20;99.90;;;;;;5123626;27;20128;-44
2023/06/30 07:19:39;;;;;;;;;;;17.20;99.90;;;;;;5125459;27;19920;-42
2023/06/30 07:22:05;;;;;;;;;;;17.30;99.90;;;;;;5126611;27;20370;-44
2023/06/30 07:24:30;;;;;;;;;;;17.30;99.90;;;;;;5132909;27;19934;-44
2023/06/30 07:26:56;;;;;;;;;;;17.40;99.90;;;;;;5123640;28;19955;-44
2023/06/30 07:29:22;;;;;;;;;;;17.50;99.90;;;;;;5132812;28;19908;-44
2023/06/30 07:31:47;;;;;;;;;;;17.50;99.90;;;;;;5133511;28;19998;-42
2023/06/30 07:34:14;;;;;;;;;;;17.60;99.90;;;;;;5133678;28;19998;-43
2023/06/30 07:36:41;;;;;;;;;;;17.60;99.90;;;;;;5132678;28;19915;-43
2023/06/30 07:39:06;;;;;;;;;;;17.60;99.90;;;;;;5132625;28;19944;-42
2023/06/30 07:41:34;;;;;;;;;;;17.70;99.90;;;;;;5127738;28;19915;-45
2023/06/30 07:44:01;;;;;;;;;;;17.70;99.90;;;;;;5131600;28;19911;-45
2023/06/30 07:46:26;;;;;;;;;;;17.70;99.90;;;;;;5132997;28;19937;-43
2023/06/30 07:48:52;;;;;;;;;;;17.80;99.90;;;;;;5126436;28;19948;-44
2023/06/30 07:51:17;;;;;;;;;;;17.90;99.90;;;;;;5133592;28;20349;-47
2023/06/30 07:53:44;;;;;;;;;;;18.00;99.90;;;;;;5123878;28;19973;-43
2023/06/30 07:56:10;;;;;;;;;;;18.20;99.90;;;;;;5112742;28;19972;-44
2023/06/30 07:58:35;;;;;;;;;;;18.30;99.90;;;;;;5133417;28;19911;-47
2023/06/30 08:01:01;;;;;;;;;;;18.40;99.90;;;;;;5131380;28;19919;-45
2023/06/30 08:03:26;;;;;;;;;;;18.50;99.90;;;;;;5123644;28;19960;-42
2023/06/30 08:05:52;;;;;;;;;;;18.60;99.90;;;;;;5132627;28;19911;-44
2023/06/30 08:08:17;;;;;;;;;;;18.60;99.90;;;;;;5132799;28;19942;-44
2023/06/30 08:10:43;;;;;;;;;;;18.70;99.90;;;;;;5131852;28;19950;-45
2023/06/30 08:13:08;;;;;;;;;;;18.70;99.90;;;;;;5112941;28;19911;-44
2023/06/30 08:15:34;;;;;;;;;;;18.70;99.90;;;;;;5112761;28;19954;-43
2023/06/30 08:17:59;;;;;;;;;;;18.60;99.90;;;;;;5125031;27;19920;-45
2023/06/30 08:20:25;;;;;;;;;;;18.50;99.90;;;;;;5129408;28;20313;-44
2023/06/30 08:22:50;;;;;;;;;;;18.50;99.90;;;;;;5133223;28;19998;-44
2023/06/30 08:25:16;;;;;;;;;;;18.60;99.90;;;;;;5125266;28;19912;-44
2023/06/30 08:27:41;;;;;;;;;;;18.60;99.90;;;;;;5112490;28;19908;-42
2023/06/30 08:30:07;;;;;;;;;;;18.60;99.90;;;;;;5112884;28;19912;-42
2023/06/30 08:32:32;;;;;;;;;;;18.60;99.90;;;;;;5112117;28;19960;-43
2023/06/30 08:34:58;;;;;;;;;;;18.60;99.90;;;;;;5123938;27;20005;-45
2023/06/30 08:37:23;;;;;;;;;;;18.70;99.90;;;;;;5120287;27;20286;-43
2023/06/30 08:39:49;;;;;;;;;;;18.80;99.90;;;;;;5115092;28;20282;-42
2023/06/30 08:42:14;;;;;;;;;;;18.90;99.90;;;;;;5120864;27;19943;-43
2023/06/30 08:44:43;;;;;;;;;;;19.10;99.90;;;;;;5136414;27;19924;-43
2023/06/30 08:47:10;;;;;;;;;;;19.10;99.90;;;;;;5135954;27;20285;-42
2023/06/30 08:49:36;;;;;;;;;;;19.10;99.90;;;;;;5136594;27;19915;-43
2023/06/30 08:52:01;;;;;;;;;;;19.20;99.90;;;;;;5136577;27;19915;-46
2023/06/30 08:54:31;;;;;;;;;;;19.30;99.90;;;;;;5134777;27;19911;-44
2023/06/30 08:56:57;;;;;;;;;;;19.40;99.90;;;;;;5115935;27;20339;-43
2023/06/30 08:59:23;;;;;;;;;;;19.40;99.90;;;;;;5115648;27;19962;-43
2023/06/30 09:01:48;;;;;;;;;;;19.40;99.90;;;;;;5120422;27;19951;-43
2023/06/30 09:04:14;;;;;;;;;;;19.60;99.90;;;;;;5126653;27;19912;-42
2023/06/30 09:06:42;;;;;;;;;;;19.60;99.90;;;;;;5115648;28;19958;-43
2023/06/30 09:09:09;;;;;;;;;;;19.80;99.90;;;;;;5133702;27;19913;-45
2023/06/30 09:11:36;;;;;;;;;;;19.80;99.90;;;;;;5136531;27;19937;-43
2023/06/30 09:14:03;;;;;;;;;;;19.80;99.90;;;;;;5126632;27;20334;-43
2023/06/30 09:16:32;;;;;;;;;;;19.80;99.90;;;;;;5118090;27;19990;-43
2023/06/30 09:18:58;;;;;;;;;;;19.90;99.90;;;;;;5126856;27;20010;-41
2023/06/30 09:21:23;;;;;;;;;;;20.10;99.90;;;;;;5114037;27;19998;-43
2023/06/30 09:23:50;;;;;;;;;;;20.30;99.90;;;;;;5120598;27;19916;-42
2023/06/30 09:26:16;;;;;;;;;;;20.40;99.90;;;;;;5116093;27;19988;-45
2023/06/30 09:28:43;;;;;;;;;;;20.40;99.90;;;;;;5119425;27;19912;-43
2023/06/30 09:31:09;;;;;;;;;;;20.30;99.90;;;;;;5122874;27;19955;-44
2023/06/30 09:33:34;;;;;;;;;;;20.10;99.90;;;;;;5119078;27;20483;-44
2023/06/30 09:36:02;;;;;;;;;;;19.90;99.90;;;;;;5129387;27;19916;-42
2023/06/30 09:38:28;;;;;;;;;;;19.70;99.90;;;;;;5125918;27;19959;-44
2023/06/30 09:40:54;;;;;;;;;;;19.50;99.90;;;;;;5135393;27;19933;-43
2023/06/30 09:43:20;;;;;;;;;;;19.40;99.90;;;;;;5124126;27;19911;-44
2023/06/30 09:45:47;;;;;;;;;;;19.30;99.90;;;;;;5116857;27;19937;-44
2023/06/30 09:48:12;;;;;;;;;;;19.50;99.90;;;;;;5119188;27;19919;-42
2023/06/30 09:50:38;;;;;;;;;;;19.70;99.90;;;;;;5121886;27;19919;-48
2023/06/30 09:53:03;;;;;;;;;;;19.90;99.90;;;;;;5125632;27;20285;-42
2023/06/30 09:55:28;;;;;;;;;;;20.10;99.90;;;;;;5121891;27;19908;-44
2023/06/30 09:57:57;;;;;;;;;;;20.30;99.90;;;;;;5122534;27;20393;-43
2023/06/30 10:00:25;;;;;;;;;;;20.40;99.90;;;;;;5133296;27;20486;-43
2023/06/30 10:03:04;;;;;;;;;;;20.40;99.90;;;;;;5133878;27;20356;-42
2023/06/30 10:05:29;;;;;;;;;;;20.50;99.90;;;;;;5135267;27;19992;-44
2023/06/30 10:07:55;;;;;;;;;;;20.50;99.90;;;;;;5119770;27;20385;-44
2023/06/30 10:10:21;;;;;;;;;;;20.60;99.90;;;;;;5120440;27;19918;-44
2023/06/30 10:12:49;;;;;;;;;;;20.70;99.90;;;;;;5117223;27;19916;-42
2023/06/30 10:15:14;;;;;;;;;;;20.80;99.70;;;;;;5115210;28;19915;-44
2023/06/30 10:17:43;;;;;;;;;;;21.00;99.90;;;;;;5113483;28;19915;-45
2023/06/30 10:20:08;;;;;;;;;;;21.10;99.90;;;;;;5114240;28;20300;-44
2023/06/30 10:22:34;;;;;;;;;;;21.20;99.90;;;;;;5114184;28;20002;-45
2023/06/30 10:25:00;;;;;;;;;;;21.40;96.50;;;;;;5113400;28;19914;-45
2023/06/30 10:27:27;;;;;;;;;;;21.50;99.90;;;;;;5114383;28;19961;-44
2023/06/30 10:29:53;;;;;;;;;;;21.60;99.60;;;;;;5114074;28;20343;-44
2023/06/30 10:32:20;;;;;;;;;;;21.60;95.60;;;;;;5113559;28;20362;-44
2023/06/30 10:34:49;;;;;;;;;;;21.80;97.90;;;;;;5132874;27;20342;-43
2023/06/30 10:37:15;;;;;;;;;;;21.90;99.90;;;;;;5134500;27;19919;-42
2023/06/30 10:39:43;;;;;;;;;;;22.10;99.90;;;;;;5133375;27;19931;-43
2023/06/30 10:42:10;;;;;;;;;;;22.10;98.70;;;;;;5134560;27;19931;-44
2023/06/30 10:44:37;;;;;;;;;;;22.00;98.00;;;;;;5134136;27;19907;-43
2023/06/30 10:47:03;;;;;;;;;;;21.90;97.60;;;;;;5134237;27;19959;-45
2023/06/30 10:49:30;;;;;;;;;;;21.90;97.90;;;;;;5134264;27;19990;-43
2023/06/30 10:51:56;;;;;;;;;;;22.00;98.80;;;;;;5132106;27;19919;-42
2023/06/30 10:54:25;;;;;;;;;;;22.00;98.40;;;;;;5133177;27;19922;-43
2023/06/30 10:56:51;;;;;;;;;;;21.80;99.90;;;;;;5133596;27;20266;-42
2023/06/30 10:59:18;;;;;;;;;;;21.60;94.90;;;;;;5133442;27;20366;-44
2023/06/30 11:02:02;;;;;;;;;;;21.50;97.10;;;;;;5134064;27;19907;-43
2023/06/30 11:04:35;;;;;;;;;;;21.40;98.50;;;;;;5134022;27;19911;-43
2023/06/30 11:07:03;;;;;;;;;;;21.40;99.30;;;;;;5133494;27;20380;-43
2023/06/30 11:09:47;;;;;;;;;;;21.50;98.10;;;;;;5133997;27;20376;-42
2023/06/30 11:12:16;;;;;;;;;;;21.70;99.30;;;;;;5133936;27;19908;-42
2023/06/30 11:14:57;;;;;;;;;;;21.80;97.10;;;;;;5133139;27;19991;-43
2023/06/30 11:17:26;;;;;;;;;;;21.80;96.60;;;;;;5133740;27;20284;-43
2023/06/30 11:19:58;;;;;;;;;;;21.90;99.50;;;;;;5133073;27;19957;-43
2023/06/30 11:22:27;;;;;;;;;;;22.10;96.20;;;;;;5133345;27;19911;-45
2023/06/30 11:24:53;;;;;;;;;;;22.30;97.10;;;;;;5133700;27;19907;-42
2023/06/30 11:27:19;;;;;;;;;;;22.40;97.40;;;;;;5133118;27;20273;-42
2023/06/30 11:29:45;;;;;;;;;;;22.20;97.00;;;;;;5133798;27;20016;-44
2023/06/30 11:32:10;;;;;;;;;;;22.10;94.70;;;;;;5133499;27;19942;-44
2023/06/30 11:34:36;;;;;;;;;;;21.90;95.40;;;;;;5132727;27;20290;-42
2023/06/30 11:37:07;;;;;;;;;;;21.80;97.30;;;;;;5133368;28;19923;-43
2023/06/30 11:39:35;;;;;;;;;;;21.60;97.00;;;;;;5133389;28;19924;-42
2023/06/30 11:42:01;;;;;;;;;;;21.40;97.00;;;;;;5132767;28;20345;-43
2023/06/30 11:44:26;;;;;;;;;;;21.30;97.70;;;;;;5133680;28;19950;-42
2023/06/30 11:46:52;;;;;;;;;;;21.50;99.40;;;;;;5133559;28;19908;-46
2023/06/30 11:49:18;;;;;;;;;;;21.70;96.70;;;;;;5132895;28;20430;-43
2023/06/30 11:51:43;;;;;;;;;;;21.90;96.60;;;;;;5133431;28;19907;-42
2023/06/30 11:54:09;;;;;;;;;;;21.90;97.10;;;;;;5132634;28;19920;-44
2023/06/30 11:56:38;;;;;;;;;;;22.00;95.70;;;;;;5132594;28;19914;-45
2023/06/30 11:59:05;;;;;;;;;;;22.10;95.60;;;;;;5133422;28;20376;-44
2023/06/30 12:01:30;;;;;;;;;;;22.10;97.40;;;;;;5133522;28;19911;-43
2023/06/30 12:04:19;;;;;;;;;;;22.00;95.90;;;;;;5132599;28;20411;-46
2023/06/30 12:06:45;;;;;;;;;;;21.90;96.50;;;;;;5133196;27;19922;-42
2023/06/30 12:09:11;;;;;;;;;;;21.90;97.00;;;;;;5135996;27;19914;-44
2023/06/30 12:11:36;;;;;;;;;;;21.80;95.00;;;;;;5137443;27;20278;-44
2023/06/30 12:14:08;;;;;;;;;;;21.70;96.90;;;;;;5137312;27;19907;-41
2023/06/30 12:16:51;;;;;;;;;;;21.90;96.40;;;;;;5136471;27;19915;-46
2023/06/30 12:19:18;;;;;;;;;;;22.10;97.40;;;;;;5137501;27;19907;-43
2023/06/30 12:22:12;;;;;;;;;;;22.20;95.50;;;;;;5137191;27;19961;-43
2023/06/30 12:24:39;;;;;;;;;;;22.40;97.60;;;;;;5131788;27;20010;-46
2023/06/30 12:27:06;;;;;;;;;;;22.70;96.60;;;;;;5136952;27;19916;-44
2023/06/30 12:29:32;;;;;;;;;;;22.90;94.80;;;;;;5137039;27;19907;-43
2023/06/30 12:31:58;;;;;;;;;;;23.10;94.30;;;;;;5136189;27;19918;-42
2023/06/30 12:34:31;;;;;;;;;;;23.20;94.00;;;;;;5137085;27;19908;-42
2023/06/30 12:36:57;;;;;;;;;;;23.40;93.90;;;;;;5136936;27;19920;-43
2023/06/30 12:39:23;;;;;;;;;;;23.60;92.50;;;;;;5135945;27;19944;-42
2023/06/30 12:41:48;;;;;;;;;;;23.80;94.60;;;;;;5136751;27;19908;-42
2023/06/30 12:44:14;;;;;;;;;;;23.60;90.10;;;;;;5136293;27;19908;-43
2023/06/30 12:46:40;;;;;;;;;;;23.50;92.60;;;;;;5136746;27;20006;-41
2023/06/30 12:49:06;;;;;;;;;;;23.30;92.80;;;;;;5136777;27;20034;-42
2023/06/30 12:51:32;;;;;;;;;;;23.20;93.10;;;;;;5135902;27;20374;-44
2023/06/30 12:53:58;;;;;;;;;;;23.40;94.00;;;;;;5135662;27;19919;-42
2023/06/30 12:56:24;;;;;;;;;;;23.90;93.10;;;;;;5136481;27;19965;-41
2023/06/30 12:58:49;;;;;;;;;;;24.30;92.40;;;;;;5135689;27;20370;-43
2023/06/30 13:01:15;;;;;;;;;;;24.50;90.30;;;;;;5118225;27;19907;-44
2023/06/30 13:03:40;;;;;;;;;;;24.40;90.50;;;;;;5136427;27;19907;-41
2023/06/30 13:06:06;;;;;;;;;;;24.10;90.60;;;;;;5135586;27;20370;-44
2023/06/30 13:08:31;;;;;;;;;;;23.80;91.90;;;;;;5136366;27;19908;-44
2023/06/30 13:10:57;;;;;;;;;;;23.60;92.10;;;;;;5136226;27;19943;-43
2023/06/30 13:13:22;;;;;;;;;;;23.50;91.50;;;;;;5135410;27;19914;-43
2023/06/30 13:15:48;;;;;;;;;;;23.40;92.00;;;;;;5136171;27;19964;-42
2023/06/30 13:18:13;;;;;;;;;;;23.30;91.30;;;;;;5135951;27;20365;-43
2023/06/30 13:20:39;;;;;;;;;;;23.20;90.40;;;;;;5135199;27;19952;-43
2023/06/30 13:23:04;;;;;;;;;;;23.10;92.40;;;;;;5135649;27;19912;-43
2023/06/30 13:25:29;;;;;;;;;;;23.00;91.30;;;;;;5136086;27;20045;-44
2023/06/30 13:27:55;;;;;;;;;;;22.90;92.30;;;;;;5135249;27;19907;-44
2023/06/30 13:30:21;;;;;;;;;;;22.90;93.30;;;;;;5136076;27;19991;-41
2023/06/30 13:32:46;;;;;;;;;;;22.80;92.00;;;;;;5135675;27;20266;-43
2023/06/30 13:35:12;;;;;;;;;;;23.10;92.20;;;;;;5135121;27;19907;-43
2023/06/30 13:37:37;;;;;;;;;;;23.70;93.50;;;;;;5135640;27;20023;-43
2023/06/30 13:40:03;;;;;;;;;;;24.10;92.10;;;;;;5135436;27;19920;-45
2023/06/30 13:42:28;;;;;;;;;;;24.70;91.80;;;;;;5134117;27;19911;-44
2023/06/30 13:44:54;;;;;;;;;;;25.20;91.40;;;;;;5135088;27;19925;-45
2023/06/30 13:47:20;;;;;;;;;;;25.60;89.60;;;;;;5135703;27;19912;-42
2023/06/30 13:49:45;;;;;;;;;;;25.80;81.90;;;;;;5134827;27;20010;-43
2023/06/30 13:52:11;;;;;;;;;;;25.80;83.40;;;;;;5135451;27;20376;-44
2023/06/30 13:54:38;;;;;;;;;;;25.70;85.30;;;;;;5134661;27;19908;-43
2023/06/30 13:57:03;;;;;;;;;;;25.60;87.30;;;;;;5135315;27;20014;-43
2023/06/30 13:59:29;;;;;;;;;;;25.50;85.20;;;;;;5135304;27;19965;-43
2023/06/30 14:01:54;;;;;;;;;;;25.80;83.70;;;;;;5134400;27;19990;-42
2023/06/30 14:04:20;;;;;;;;;;;25.80;91.00;;;;;;5135206;27;19912;-43
2023/06/30 14:06:45;;;;;;;;;;;26.00;87.40;;;;;;5135099;27;19908;-46
2023/06/30 14:09:11;;;;;;;;;;;26.30;79.60;;;;;;5134227;27;19907;-43
2023/06/30 14:11:37;;;;;;;;;;;26.60;87.70;;;;;;5135102;27;19959;-43